createdAt,value
2023-02-04T00:01:48.986Z,103313.59
2023-02-04T00:04:16.254Z,103313.25
2023-02-04T00:06:44.921Z,103314.72
2023-02-04T00:09:12.304Z,103318.31
2023-02-04T00:11:39.334Z,103308.41
2023-02-04T00:14:07.173Z,103313.78
2023-02-04T00:16:34.013Z,103308.06
2023-02-04T00:19:00.950Z,103306.34
2023-02-04T00:21:27.987Z,103307.22
2023-02-04T00:23:56.614Z,103316.75
2023-02-04T00:26:23.427Z,103311.31
2023-02-04T00:28:51.304Z,103311.03
2023-02-04T00:31:18.089Z,103312.50
2023-02-04T00:33:45.999Z,103312.16
2023-02-04T00:36:15.726Z,103324.75
2023-02-04T00:38:42.935Z,103322.81
2023-02-04T00:41:09.690Z,103329.28
2023-02-04T00:43:37.767Z,103329.53
2023-02-04T00:46:04.811Z,103322.22
2023-02-04T00:48:31.594Z,103317.44
2023-02-04T00:50:58.453Z,103315.34
2023-02-04T00:53:25.275Z,103326.59
2023-02-04T00:55:51.984Z,103319.28
2023-02-04T00:58:18.845Z,103331.03
2023-02-04T01:00:45.613Z,103327.97
2023-02-04T01:03:12.537Z,103334.09
2023-02-04T01:05:40.813Z,103330.69
2023-02-04T01:08:07.643Z,103327.88
2023-02-04T01:10:34.349Z,103333.50
2023-02-04T01:13:02.374Z,103326.44
2023-02-04T01:15:29.182Z,103335.97
2023-02-04T01:17:59.366Z,103342.94
2023-02-04T01:20:26.386Z,103346.88
2023-02-04T01:22:53.411Z,103345.16
2023-02-04T01:25:20.431Z,103350.78
2023-02-04T01:27:47.431Z,103343.13
2023-02-04T01:30:15.168Z,103337.50
2023-02-04T01:32:42.042Z,103341.91
2023-02-04T01:35:09.536Z,103347.53
2023-02-04T01:37:36.735Z,103350.59
2023-02-04T01:40:03.947Z,103351.09
2023-02-04T01:42:31.742Z,103352.19
2023-02-04T01:44:58.787Z,103361.47
2023-02-04T01:47:26.897Z,103358.91
2023-02-04T01:49:55.117Z,103361.38
2023-02-04T01:52:22.869Z,103358.56
2023-02-04T01:54:49.927Z,103359.19
2023-02-04T01:57:17.101Z,103360.75
2023-02-04T01:59:45.476Z,103364.69
2023-02-04T02:02:15.701Z,103369.47
2023-02-04T02:04:42.742Z,103362.75
2023-02-04T02:07:12.161Z,103355.66
2023-02-04T02:09:39.625Z,103364.59
2023-02-04T02:12:06.801Z,103359.22
2023-02-04T02:14:33.752Z,103356.69
2023-02-04T02:17:00.849Z,103364.25
2023-02-04T02:19:33.037Z,103361.94
2023-02-04T02:22:06.335Z,103361.59
2023-02-04T02:24:36.428Z,103356.59
2023-02-04T02:27:05.796Z,103354.63
2023-02-04T02:29:33.065Z,103354.25
2023-02-04T02:32:00.023Z,103357.34
2023-02-04T02:34:27.691Z,103351.94
2023-02-04T02:36:54.731Z,103362.34
2023-02-04T02:39:21.950Z,103359.53
2023-02-04T02:41:48.836Z,103357.81
2023-02-04T02:44:16.633Z,103359.19
2023-02-04T02:46:43.829Z,103358.31
2023-02-04T02:49:16.638Z,103356.03
2023-02-04T02:51:43.530Z,103361.38
2023-02-04T02:54:13.307Z,103352.34
2023-02-04T02:56:39.971Z,103356.25
2023-02-04T02:59:13.149Z,103357.34
2023-02-04T03:01:39.892Z,103349.19
2023-02-04T03:04:06.924Z,103342.97
2023-02-04T03:06:34.734Z,103342.97
2023-02-04T03:09:01.638Z,103346.00
2023-02-04T03:11:30.538Z,103345.16
2023-02-04T03:13:58.684Z,103341.75
2023-02-04T03:16:25.442Z,103343.47
2023-02-04T03:18:52.330Z,103338.34
2023-02-04T03:21:19.139Z,103339.47
2023-02-04T03:23:45.936Z,103331.03
2023-02-04T03:26:13.121Z,103336.03
2023-02-04T03:28:41.312Z,103333.47
2023-02-04T03:31:08.124Z,103331.78
2023-02-04T03:33:36.260Z,103336.28
2023-02-04T03:36:03.436Z,103345.19
2023-02-04T03:38:30.625Z,103330.94
2023-02-04T03:40:57.673Z,103323.22
2023-02-04T03:43:24.339Z,103335.31
2023-02-04T03:45:51.107Z,103335.31
2023-02-04T03:48:18.834Z,103336.41
2023-02-04T03:50:46.016Z,103332.13
2023-02-04T03:53:13.893Z,103336.88
2023-02-04T03:55:41.329Z,103339.69
2023-02-04T03:58:08.024Z,103344.72
2023-02-04T04:00:34.805Z,103343.63
2023-02-04T04:03:01.903Z,103344.38
2023-02-04T04:05:28.964Z,103340.44
2023-02-04T04:07:56.328Z,103343.25
2023-02-04T04:10:23.333Z,103327.53
2023-02-04T04:12:50.592Z,103340.69
2023-02-04T04:15:17.882Z,103330.56
2023-02-04T04:17:44.690Z,103341.78
2023-02-04T04:20:12.895Z,103347.28
2023-02-04T04:22:40.424Z,103360.00
2023-02-04T04:25:07.987Z,103355.72
2023-02-04T04:27:35.498Z,103360.22
2023-02-04T04:30:03.459Z,103355.94
2023-02-04T04:32:30.487Z,103357.44
2023-02-04T04:34:57.842Z,103357.66
2023-02-04T04:37:27.825Z,103366.09
2023-02-04T04:39:54.864Z,103357.31
2023-02-04T04:42:21.651Z,103360.34
2023-02-04T04:44:49.172Z,103360.13
2023-02-04T04:47:15.944Z,103364.00
2023-02-04T04:49:43.136Z,103365.97
2023-02-04T04:52:11.042Z,103368.19
2023-02-04T04:54:38.262Z,103369.28
2023-02-04T04:57:05.139Z,103369.28
2023-02-04T04:59:31.826Z,103374.53
2023-02-04T05:01:58.546Z,103376.13
2023-02-04T05:04:25.337Z,103378.44
2023-02-04T05:06:52.045Z,103385.13
2023-02-04T05:09:19.048Z,103378.06
2023-02-04T05:11:45.907Z,103375.50
2023-02-04T05:14:15.047Z,103381.22
2023-02-04T05:16:41.878Z,103377.22
2023-02-04T05:19:08.616Z,103379.16
2023-02-04T05:21:35.454Z,103376.59
2023-02-04T05:24:02.489Z,103384.16
2023-02-04T05:26:31.194Z,103378.81
2023-02-04T05:29:00.619Z,103388.09
2023-02-04T05:31:28.618Z,103390.03
2023-02-04T05:33:55.633Z,103390.75
2023-02-04T05:36:23.478Z,103391.13
2023-02-04T05:38:50.467Z,103391.63
2023-02-04T05:41:17.287Z,103388.56
2023-02-04T05:43:44.247Z,103397.47
2023-02-04T05:46:11.035Z,103398.81
2023-02-04T05:48:37.976Z,103398.81
2023-02-04T05:51:05.460Z,103397.97
2023-02-04T05:53:32.963Z,103399.06
2023-02-04T05:56:00.577Z,103398.19
2023-02-04T05:58:33.990Z,103399.66
2023-02-04T06:01:01.711Z,103399.06
2023-02-04T06:03:30.034Z,103399.28
2023-02-04T06:05:57.577Z,103402.09
2023-02-04T06:08:24.574Z,103401.63
2023-02-04T06:10:51.688Z,103403.69
2023-02-04T06:13:18.775Z,103404.31
2023-02-04T06:15:45.515Z,103407.56
2023-02-04T06:18:13.096Z,103412.31
2023-02-04T06:20:39.857Z,103405.63
2023-02-04T06:23:06.800Z,103396.84
2023-02-04T06:25:33.680Z,103403.56
2023-02-04T06:28:00.843Z,103422.09
2023-02-04T06:30:27.672Z,103417.56
2023-02-04T06:32:54.455Z,103419.28
2023-02-04T06:35:21.284Z,103414.53
2023-02-04T06:37:50.485Z,103420.38
2023-02-04T06:40:17.988Z,103419.78
2023-02-04T06:42:44.895Z,103424.28
2023-02-04T06:45:11.625Z,103426.25
2023-02-04T06:47:38.526Z,103427.06
2023-02-04T06:50:06.402Z,103431.22
2023-02-04T06:52:33.554Z,103439.66
2023-02-04T06:55:00.630Z,103442.69
2023-02-04T06:57:28.188Z,103445.75
2023-02-04T06:59:55.084Z,103435.13
2023-02-04T07:02:21.906Z,103430.38
2023-02-04T07:04:49.546Z,103442.09
2023-02-04T07:07:16.516Z,103444.63
2023-02-04T07:09:43.315Z,103447.19
2023-02-04T07:12:10.076Z,103435.63
2023-02-04T07:14:36.926Z,103433.69
2023-02-04T07:17:04.184Z,103428.06
2023-02-04T07:19:30.876Z,103431.59
2023-02-04T07:21:57.731Z,103434.75
2023-02-04T07:24:25.290Z,103434.75
2023-02-04T07:26:54.586Z,103435.63
2023-02-04T07:29:25.625Z,103447.84
2023-02-04T07:31:53.344Z,103449.06
2023-02-04T07:34:20.598Z,103446.84
2023-02-04T07:36:47.676Z,103451.72
2023-02-04T07:39:14.723Z,103449.31
2023-02-04T07:41:41.566Z,103446.59
2023-02-04T07:44:08.357Z,103450.66
2023-02-04T07:46:35.171Z,103454.69
2023-02-04T07:49:02.517Z,103457.34
2023-02-04T07:51:29.730Z,103460.53
2023-02-04T07:53:59.489Z,103466.03
2023-02-04T07:56:26.698Z,103465.28
2023-02-04T07:58:55.768Z,103472.75
2023-02-04T08:01:22.890Z,103472.88
2023-02-04T08:03:49.836Z,103470.56
2023-02-04T08:06:16.642Z,103473.50
2023-02-04T08:08:45.134Z,103473.59
2023-02-04T08:11:11.878Z,103481.91
2023-02-04T08:13:38.630Z,103487.88
2023-02-04T08:16:05.832Z,103487.75
2023-02-04T08:18:34.888Z,103485.28
2023-02-04T08:21:02.378Z,103483.47
2023-02-04T08:23:29.157Z,103490.28
2023-02-04T08:25:56.168Z,103493.44
2023-02-04T08:28:23.012Z,103497.69
2023-02-04T08:30:50.219Z,103501.75
2023-02-04T08:33:17.287Z,103509.66
2023-02-04T08:35:44.547Z,103507.44
2023-02-04T08:38:11.320Z,103511.72
2023-02-04T08:40:38.274Z,103510.13
2023-02-04T08:43:06.140Z,103514.16
2023-02-04T08:45:32.960Z,103517.56
2023-02-04T08:47:59.812Z,103517.06
2023-02-04T08:50:27.306Z,103520.50
2023-02-04T08:52:54.598Z,103525.25
2023-02-04T08:55:22.529Z,103523.03
2023-02-04T08:57:49.359Z,103523.66
2023-02-04T09:00:17.467Z,103528.19
2023-02-04T09:02:44.234Z,103529.00
2023-02-04T09:05:11.269Z,103528.19
2023-02-04T09:07:38.052Z,103537.44
2023-02-04T09:10:05.014Z,103541.13
2023-02-04T09:12:32.752Z,103538.34
2023-02-04T09:14:59.473Z,103538.56
2023-02-04T09:17:27.311Z,103535.53
2023-02-04T09:19:54.029Z,103540.25
2023-02-04T09:22:20.886Z,103548.97
2023-02-04T09:24:47.686Z,103541.00
2023-02-04T09:27:14.732Z,103546.63
2023-02-04T09:29:41.534Z,103536.50
2023-02-04T09:32:08.608Z,103537.84
2023-02-04T09:34:35.534Z,103534.78
2023-02-04T09:37:02.849Z,103533.59
2023-02-04T09:39:29.826Z,103536.63
2023-02-04T09:41:57.217Z,103534.56
2023-02-04T09:44:26.014Z,103538.47
2023-02-04T09:46:54.214Z,103533.13
2023-02-04T09:49:21.035Z,103537.03
2023-02-04T09:51:49.067Z,103534.09
2023-02-04T09:54:17.498Z,103541.09
2023-02-04T09:56:44.584Z,103554.50
2023-02-04T09:59:13.204Z,103555.88
2023-02-04T10:01:40.587Z,103553.41
2023-02-04T10:04:10.578Z,103561.50
2023-02-04T10:06:38.687Z,103555.53
2023-02-04T10:09:05.630Z,103555.28
2023-02-04T10:11:34.819Z,103560.91
2023-02-04T10:14:01.611Z,103562.22
2023-02-04T10:16:32.873Z,103554.91
2023-02-04T10:19:02.133Z,103556.50
2023-02-04T10:21:30.731Z,103561.00
2023-02-04T10:23:58.245Z,103557.84
2023-02-04T10:26:28.788Z,103560.44
2023-02-04T10:28:59.033Z,103564.44
2023-02-04T10:31:28.525Z,103568.16
2023-02-04T10:33:58.661Z,103567.75
2023-02-04T10:36:25.544Z,103566.56
2023-02-04T10:38:55.640Z,103569.63
2023-02-04T10:41:24.699Z,103575.34
2023-02-04T10:43:55.817Z,103573.56
2023-02-04T10:46:24.062Z,103582.44
2023-02-04T10:48:52.540Z,103584.31
2023-02-04T10:51:19.334Z,103590.47
2023-02-04T10:53:49.678Z,103591.31
2023-02-04T10:56:18.220Z,103586.25
2023-02-04T10:58:46.244Z,103593.44
2023-02-04T11:01:13.946Z,103599.53
2023-02-04T11:03:41.440Z,103597.50
2023-02-04T11:06:11.681Z,103599.50
2023-02-04T11:08:39.089Z,103593.59
2023-02-04T11:11:08.302Z,103596.81
2023-02-04T11:13:39.123Z,103593.41
2023-02-04T11:16:09.229Z,103596.16
2023-02-04T11:18:40.032Z,103596.63
2023-02-04T11:21:14.820Z,103589.34
2023-02-04T11:23:42.125Z,103585.97
2023-02-04T11:26:09.223Z,103585.00
2023-02-04T11:28:39.128Z,103584.72
2023-02-04T11:31:13.588Z,103587.47
2023-02-04T11:33:42.797Z,103580.97
2023-02-04T11:36:13.434Z,103579.78
2023-02-04T11:38:48.086Z,103586.41
2023-02-04T11:41:16.938Z,103580.13
2023-02-04T11:43:44.817Z,103574.03
2023-02-04T11:46:14.263Z,103586.47
2023-02-04T11:48:41.866Z,103577.84
2023-02-04T11:51:12.614Z,103582.75
2023-02-04T11:53:40.175Z,103575.22
2023-02-04T11:56:08.041Z,103589.59
2023-02-04T11:58:39.309Z,103587.88
2023-02-04T12:01:08.944Z,103591.81
2023-02-04T12:03:46.018Z,103580.13
2023-02-04T12:06:20.899Z,103583.53
2023-02-04T12:08:48.113Z,103580.50
2023-02-04T12:11:18.089Z,103586.75
2023-02-04T12:13:48.034Z,103583.69
2023-02-04T12:16:14.959Z,103582.59
2023-02-04T12:18:42.349Z,103583.69
2023-02-04T12:21:09.144Z,103587.97
2023-02-04T12:23:36.140Z,103587.72
2023-02-04T12:26:03.204Z,103581.28
2023-02-04T12:28:30.253Z,103587.50
2023-02-04T12:30:57.668Z,103587.72
2023-02-04T12:33:24.678Z,103588.59
2023-02-04T12:35:51.744Z,103592.41
2023-02-04T12:38:20.434Z,103592.63
2023-02-04T12:40:47.872Z,103599.34
2023-02-04T12:43:14.822Z,103593.09
2023-02-04T12:45:46.313Z,103590.94
2023-02-04T12:48:15.473Z,103587.03
2023-02-04T12:50:42.754Z,103582.97
2023-02-04T12:53:09.818Z,103588.75
2023-02-04T12:55:36.743Z,103593.97
2023-02-04T12:58:04.002Z,103586.41
2023-02-04T13:00:31.380Z,103596.53
2023-02-04T13:03:00.024Z,103602.75
2023-02-04T13:05:29.702Z,103605.81
2023-02-04T13:07:57.361Z,103603.38
2023-02-04T13:10:24.835Z,103605.81
2023-02-04T13:12:51.770Z,103607.28
2023-02-04T13:15:19.286Z,103610.94
2023-02-04T13:17:49.280Z,103605.31
2023-02-04T13:20:16.568Z,103600.81
2023-02-04T13:22:43.679Z,103596.28
2023-02-04T13:25:11.896Z,103594.34
2023-02-04T13:27:39.997Z,103596.06
2023-02-04T13:30:08.713Z,103601.03
2023-02-04T13:32:35.494Z,103592.63
2023-02-04T13:35:02.884Z,103594.19
2023-02-04T13:37:29.675Z,103583.63
2023-02-04T13:39:56.546Z,103588.34
2023-02-04T13:42:23.415Z,103593.97
2023-02-04T13:44:50.698Z,103590.06
2023-02-04T13:47:17.684Z,103588.34
2023-02-04T13:49:44.569Z,103589.44
2023-02-04T13:52:11.663Z,103576.78
2023-02-04T13:54:38.470Z,103586.91
2023-02-04T13:57:05.896Z,103587.28
2023-02-04T13:59:32.724Z,103587.50
2023-02-04T14:01:59.708Z,103584.91
2023-02-04T14:04:27.466Z,103592.72
2023-02-04T14:06:55.606Z,103588.19
2023-02-04T14:09:23.145Z,103581.50
2023-02-04T14:11:50.034Z,103582.44
2023-02-04T14:14:20.531Z,103585.63
2023-02-04T14:16:47.822Z,103589.06
2023-02-04T14:19:15.698Z,103589.28
2023-02-04T14:21:42.943Z,103594.50
2023-02-04T14:24:09.821Z,103585.03
2023-02-04T14:26:36.715Z,103582.22
2023-02-04T14:29:04.716Z,103593.91
2023-02-04T14:31:32.097Z,103582.69
2023-02-04T14:33:59.525Z,103583.13
2023-02-04T14:36:26.626Z,103588.91
2023-02-04T14:38:53.713Z,103590.41
2023-02-04T14:41:21.706Z,103584.31
2023-02-04T14:43:49.012Z,103582.53
2023-02-04T14:46:16.437Z,103582.91
2023-02-04T14:48:45.775Z,103579.63
2023-02-04T14:51:13.318Z,103576.59
2023-02-04T14:53:44.091Z,103581.28
2023-02-04T14:56:15.983Z,103583.38
2023-02-04T14:58:46.508Z,103583.50
2023-02-04T15:01:14.839Z,103580.84
2023-02-04T15:03:41.741Z,103575.66
2023-02-04T15:06:08.685Z,103569.56
2023-02-04T15:08:36.394Z,103584.81
2023-02-04T15:11:03.141Z,103579.59
2023-02-04T15:13:31.015Z,103579.13
2023-02-04T15:15:58.053Z,103575.00
2023-02-04T15:18:25.129Z,103574.50
2023-02-04T15:20:52.878Z,103569.53
2023-02-04T15:23:20.704Z,103574.66
2023-02-04T15:25:48.897Z,103575.28
2023-02-04T15:28:16.277Z,103584.28
2023-02-04T15:30:43.883Z,103584.06
2023-02-04T15:33:13.171Z,103591.13
2023-02-04T15:35:40.273Z,103594.56
2023-02-04T15:38:07.198Z,103594.34
2023-02-04T15:40:34.462Z,103584.56
2023-02-04T15:43:01.557Z,103583.25
2023-02-04T15:45:31.414Z,103589.97
2023-02-04T15:47:58.688Z,103594.47
2023-02-04T15:50:25.484Z,103591.19
2023-02-04T15:52:54.579Z,103583.63
2023-02-04T15:55:22.277Z,103586.16
2023-02-04T15:57:49.578Z,103590.69
2023-02-04T16:00:17.613Z,103589.38
2023-02-04T16:02:44.949Z,103582.03
2023-02-04T16:05:12.247Z,103583.13
2023-02-04T16:07:39.820Z,103578.63
2023-02-04T16:10:07.247Z,103568.88
2023-02-04T16:12:34.233Z,103568.03
2023-02-04T16:15:01.828Z,103567.16
2023-02-04T16:17:31.030Z,103576.44
2023-02-04T16:19:58.346Z,103583.13
2023-02-04T16:22:26.339Z,103589.84
2023-02-04T16:24:54.407Z,103594.59
2023-02-04T16:27:21.302Z,103593.75
2023-02-04T16:29:48.064Z,103594.59
2023-02-04T16:32:15.798Z,103594.59
2023-02-04T16:34:43.042Z,103604.13
2023-02-04T16:37:10.739Z,103609.09
2023-02-04T16:39:39.496Z,103608.25
2023-02-04T16:42:09.024Z,103611.53
2023-02-04T16:44:37.551Z,103619.25
2023-02-04T16:47:04.989Z,103615.44
2023-02-04T16:49:31.954Z,103610.69
2023-02-04T16:51:58.721Z,103616.78
2023-02-04T16:54:25.850Z,103603.63
2023-02-04T16:56:55.678Z,103609.22
2023-02-04T16:59:24.241Z,103620.91
2023-02-04T17:01:51.115Z,103620.03
2023-02-04T17:04:18.038Z,103633.47
2023-02-04T17:06:44.860Z,103627.75
2023-02-04T17:09:11.650Z,103639.97
2023-02-04T17:11:39.005Z,103636.16
2023-02-04T17:14:07.322Z,103642.03
2023-02-04T17:16:35.655Z,103658.00
2023-02-04T17:19:02.842Z,103652.47
2023-02-04T17:21:30.876Z,103655.28
2023-02-04T17:24:04.541Z,103658.34
2023-02-04T17:26:37.404Z,103665.91
2023-02-04T17:29:06.023Z,103664.66
2023-02-04T17:31:34.045Z,103665.97
2023-02-04T17:34:01.251Z,103670.50
2023-02-04T17:36:28.484Z,103663.38
2023-02-04T17:38:56.771Z,103664.25
2023-02-04T17:41:23.715Z,103674.00
2023-02-04T17:43:50.911Z,103664.72
2023-02-04T17:46:17.905Z,103672.50
2023-02-04T17:48:44.840Z,103672.78
2023-02-04T17:51:12.975Z,103678.13
2023-02-04T17:53:41.491Z,103673.00
2023-02-04T17:56:11.800Z,103671.75
2023-02-04T17:58:39.060Z,103685.56
2023-02-04T18:01:10.611Z,103679.53
2023-02-04T18:03:38.136Z,103684.06
2023-02-04T18:06:19.972Z,103680.88
2023-02-04T18:08:47.103Z,103680.00
2023-02-04T18:11:20.082Z,103685.22
2023-02-04T18:13:48.903Z,103678.75
2023-02-04T18:16:17.196Z,103687.38
2023-02-04T18:18:44.630Z,103697.13
2023-02-04T18:21:14.867Z,103689.78
2023-02-04T18:23:41.824Z,103700.41
2023-02-04T18:26:13.114Z,103688.56
2023-02-04T18:28:44.805Z,103687.47
2023-02-04T18:31:15.621Z,103686.22
2023-02-04T18:33:45.327Z,103697.66
2023-02-04T18:36:19.001Z,103683.00
2023-02-04T18:38:49.157Z,103680.22
2023-02-04T18:41:19.158Z,103681.94
2023-02-04T18:43:50.861Z,103683.25
2023-02-04T18:46:21.368Z,103680.47
2023-02-04T18:48:51.358Z,103697.28
2023-02-04T18:51:21.777Z,103685.22
2023-02-04T18:53:49.680Z,103680.47
2023-02-04T18:56:19.557Z,103693.31
2023-02-04T18:58:49.491Z,103692.59
2023-02-04T19:01:21.544Z,103687.00
2023-02-04T19:03:49.352Z,103685.91
2023-02-04T19:06:22.737Z,103692.13
2023-02-04T19:08:49.649Z,103701.16
2023-02-04T19:11:19.465Z,103695.13
2023-02-04T19:13:46.832Z,103685.63
2023-02-04T19:16:17.025Z,103694.66
2023-02-04T19:18:44.399Z,103700.28
2023-02-04T19:21:14.234Z,103699.78
2023-02-04T19:23:41.340Z,103695.91
2023-02-04T19:26:15.808Z,103701.75
2023-02-04T19:28:43.144Z,103692.25
2023-02-04T19:31:11.451Z,103696.78
2023-02-04T19:33:42.338Z,103697.00
2023-02-04T19:36:12.769Z,103702.38
2023-02-04T19:38:42.245Z,103697.63
2023-02-04T19:41:12.595Z,103699.31
2023-02-04T19:43:39.569Z,103706.03
2023-02-04T19:46:19.347Z,103698.22
2023-02-04T19:48:47.657Z,103696.06
2023-02-04T19:51:18.057Z,103699.97
2023-02-04T19:53:47.216Z,103691.53
2023-02-04T19:56:17.804Z,103678.38
2023-02-04T19:58:45.236Z,103672.78
2023-02-04T20:01:18.094Z,103679.47
2023-02-04T20:03:46.118Z,103685.94
2023-02-04T20:06:16.501Z,103690.69
2023-02-04T20:08:45.893Z,103695.44
2023-02-04T20:11:16.803Z,103690.69
2023-02-04T20:13:44.012Z,103690.31
2023-02-04T20:16:13.934Z,103688.34
2023-02-04T20:18:40.861Z,103695.66
2023-02-04T20:21:11.241Z,103689.66
2023-02-04T20:23:38.916Z,103695.28
2023-02-04T20:26:10.194Z,103701.75
2023-02-04T20:28:40.538Z,103703.94
2023-02-04T20:31:10.664Z,103689.91
2023-02-04T20:33:40.805Z,103685.63
2023-02-04T20:36:10.702Z,103709.13
2023-02-04T20:38:37.693Z,103726.81
2023-02-04T20:41:15.080Z,103731.56
2023-02-04T20:43:42.950Z,103723.41
2023-02-04T20:46:14.755Z,103715.84
2023-02-04T20:48:41.986Z,103721.47
2023-02-04T20:51:16.150Z,103720.78
2023-02-04T20:53:47.295Z,103702.25
2023-02-04T20:56:17.120Z,103714.31
2023-02-04T20:58:46.166Z,103720.16
2023-02-04T21:01:16.169Z,103726.88
2023-02-04T21:03:44.337Z,103708.34
2023-02-04T21:06:14.664Z,103704.69
2023-02-04T21:08:43.292Z,103710.50
2023-02-04T21:11:10.836Z,103719.78
2023-02-04T21:13:37.668Z,103718.00
2023-02-04T21:16:04.775Z,103723.16
2023-02-04T21:18:34.643Z,103723.56
2023-02-04T21:21:02.888Z,103718.34
2023-02-04T21:23:30.101Z,103713.13
2023-02-04T21:25:57.460Z,103716.31
2023-02-04T21:28:24.381Z,103716.69
2023-02-04T21:30:51.318Z,103703.06
2023-02-04T21:33:18.915Z,103708.19
2023-02-04T21:35:47.561Z,103702.97
2023-02-04T21:38:14.856Z,103702.50
2023-02-04T21:40:41.838Z,103697.50
2023-02-04T21:43:09.095Z,103695.06
2023-02-04T21:45:37.812Z,103688.16
2023-02-04T21:48:05.975Z,103693.50
2023-02-04T21:50:33.396Z,103700.63
2023-02-04T21:53:00.322Z,103703.19
2023-02-04T21:55:29.275Z,103701.00
2023-02-04T21:57:56.685Z,103702.69
2023-02-04T22:00:24.069Z,103694.88
2023-02-04T22:02:52.373Z,103698.31
2023-02-04T22:05:19.465Z,103693.56
2023-02-04T22:07:47.445Z,103695.53
2023-02-04T22:10:17.261Z,103699.19
2023-02-04T22:12:44.862Z,103697.84
2023-02-04T22:15:12.058Z,103693.72
2023-02-04T22:17:38.915Z,103697.38
2023-02-04T22:20:06.187Z,103697.13
2023-02-04T22:22:33.380Z,103698.00
2023-02-04T22:25:02.705Z,103697.38
2023-02-04T22:27:29.472Z,103700.19
2023-02-04T22:29:57.543Z,103701.88
2023-02-04T22:32:24.459Z,103701.28
2023-02-04T22:34:51.254Z,103704.31
2023-02-04T22:37:18.056Z,103701.50
2023-02-04T22:39:44.945Z,103700.91
2023-02-04T22:42:12.821Z,103703.44
2023-02-04T22:44:39.515Z,103704.31
2023-02-04T22:47:06.338Z,103706.91
2023-02-04T22:49:36.842Z,103708.22
2023-02-04T22:52:04.032Z,103710.19
2023-02-04T22:54:31.311Z,103700.66
2023-02-04T22:57:00.646Z,103698.09
2023-02-04T22:59:28.230Z,103700.03
2023-02-04T23:01:56.216Z,103707.38
2023-02-04T23:04:23.339Z,103707.84
2023-02-04T23:06:50.857Z,103717.97
2023-02-04T23:09:17.998Z,103713.94
2023-02-04T23:11:44.981Z,103711.34
2023-02-04T23:14:11.875Z,103699.53
2023-02-04T23:16:38.902Z,103701.47
2023-02-04T23:19:05.713Z,103707.09
2023-02-04T23:21:32.805Z,103712.69
2023-02-04T23:24:00.074Z,103700.25
2023-02-04T23:26:26.876Z,103708.88
2023-02-04T23:28:54.204Z,103696.19
2023-02-04T23:31:21.039Z,103689.47
2023-02-04T23:33:52.169Z,103689.72
2023-02-04T23:36:19.351Z,103698.13
2023-02-04T23:38:46.399Z,103695.56
2023-02-04T23:41:13.355Z,103708.34
2023-02-04T23:43:40.116Z,103710.94
2023-02-04T23:46:07.138Z,103720.66
2023-02-04T23:48:34.056Z,103713.31
2023-02-04T23:51:01.563Z,103720.66
2023-02-04T23:53:28.773Z,103713.31
2023-02-04T23:55:55.426Z,103723.94
2023-02-04T23:58:22.325Z,103728.06
